sensor_id;sensor_type;location;lat;lon;timestamp;temperature;humidity
70368;DHT22;57789;53.868;10.728;2023-12-22T00:01:27;5.70;99.90
70368;DHT22;57789;53.868;10.728;2023-12-22T00:03:53;5.70;99.90
70368;DHT22;57789;53.868;10.728;2023-12-22T00:06:18;5.70;99.90
70368;DHT22;57789;53.868;10.728;2023-12-22T00:08:44;5.70;99.90
70368;DHT22;57789;53.868;10.728;2023-12-22T00:11:10;5.80;99.90
70368;DHT22;57789;53.868;10.728;2023-12-22T00:13:36;5.80;99.90
70368;DHT22;57789;53.868;10.728;2023-12-22T00:16:02;5.80;99.90
70368;DHT22;57789;53.868;10.728;2023-12-22T00:18:28;5.70;99.90
70368;DHT22;57789;53.868;10.728;2023-12-22T00:20:54;5.70;99.90
70368;DHT22;57789;53.868;10.728;2023-12-22T00:23:20;5.60;99.90
70368;DHT22;57789;53.868;10.728;2023-12-22T00:25:46;5.60;99.90
70368;DHT22;57789;53.868;10.728;2023-12-22T00:28:11;5.60;99.90
70368;DHT22;57789;53.868;10.728;2023-12-22T00:30:37;5.50;99.90
70368;DHT22;57789;53.868;10.728;2023-12-22T00:33:03;5.50;99.90
70368;DHT22;57789;53.868;10.728;2023-12-22T00:35:29;5.50;99.90
70368;DHT22;57789;53.868;10.728;2023-12-22T00:37:55;5.50;99.90
70368;DHT22;57789;53.868;10.728;2023-12-22T00:40:20;5.50;99.90
70368;DHT22;57789;53.868;10.728;2023-12-22T00:42:46;5.50;99.90
70368;DHT22;57789;53.868;10.728;2023-12-22T00:45:12;5.50;99.90
70368;DHT22;57789;53.868;10.728;2023-12-22T00:47:38;5.40;99.90
70368;DHT22;57789;53.868;10.728;2023-12-22T00:50:05;5.40;99.90
70368;DHT22;57789;53.868;10.728;2023-12-22T00:52:31;5.40;99.90
70368;DHT22;57789;53.868;10.728;2023-12-22T00:54:57;5.40;99.90
70368;DHT22;57789;53.868;10.728;2023-12-22T00:57:23;5.40;99.90
70368;DHT22;57789;53.868;10.728;2023-12-22T00:59:49;5.40;99.90
70368;DHT22;57789;53.868;10.728;2023-12-22T01:02:15;5.40;99.90
70368;DHT22;57789;53.868;10.728;2023-12-22T01:04:41;5.30;99.90
70368;DHT22;57789;53.868;10.728;2023-12-22T01:07:08;5.30;99.90
70368;DHT22;57789;53.868;10.728;2023-12-22T01:09:34;5.30;99.90
70368;DHT22;57789;53.868;10.728;2023-12-22T01:12:00;5.30;99.90
70368;DHT22;57789;53.868;10.728;2023-12-22T01:14:28;5.30;99.90
70368;DHT22;57789;53.868;10.728;2023-12-22T01:16:54;5.30;99.90
70368;DHT22;57789;53.868;10.728;2023-12-22T01:19:20;5.30;99.90
70368;DHT22;57789;53.868;10.728;2023-12-22T01:21:46;5.30;99.90
70368;DHT22;57789;53.868;10.728;2023-12-22T01:24:12;5.30;99.90
70368;DHT22;57789;53.868;10.728;2023-12-22T01:26:37;5.30;99.90
70368;DHT22;57789;53.868;10.728;2023-12-22T01:29:03;5.30;99.90
70368;DHT22;57789;53.868;10.728;2023-12-22T01:31:29;5.30;99.90
70368;DHT22;57789;53.868;10.728;2023-12-22T01:33:55;5.20;99.90
70368;DHT22;57789;53.868;10.728;2023-12-22T01:36:20;5.20;99.90
70368;DHT22;57789;53.868;10.728;2023-12-22T01:38:46;5.20;99.90
70368;DHT22;57789;53.868;10.728;2023-12-22T01:41:12;5.20;99.90
70368;DHT22;57789;53.868;10.728;2023-12-22T01:43:38;5.10;99.90
70368;DHT22;57789;53.868;10.728;2023-12-22T01:46:04;5.10;99.90
70368;DHT22;57789;53.868;10.728;2023-12-22T01:48:31;5.10;99.90
70368;DHT22;57789;53.868;10.728;2023-12-22T01:50:58;5.10;99.90
70368;DHT22;57789;53.868;10.728;2023-12-22T01:53:26;5.20;99.90
70368;DHT22;57789;53.868;10.728;2023-12-22T01:55:53;5.20;99.90
70368;DHT22;57789;53.868;10.728;2023-12-22T01:58:20;5.10;99.90
70368;DHT22;57789;53.868;10.728;2023-12-22T02:00:47;5.10;99.90
70368;DHT22;57789;53.868;10.728;2023-12-22T02:03:13;5.10;99.90
70368;DHT22;57789;53.868;10.728;2023-12-22T02:05:41;5.10;99.90
70368;DHT22;57789;53.868;10.728;2023-12-22T02:08:07;5.10;99.90
70368;DHT22;57789;53.868;10.728;2023-12-22T02:10:33;5.10;99.90
70368;DHT22;57789;53.868;10.728;2023-12-22T02:12:59;5.10;99.90
70368;DHT22;57789;53.868;10.728;2023-12-22T02:15:24;5.10;99.90
70368;DHT22;57789;53.868;10.728;2023-12-22T02:18:09;5.10;99.90
70368;DHT22;57789;53.868;10.728;2023-12-22T02:20:36;5.00;99.90
70368;DHT22;57789;53.868;10.728;2023-12-22T02:23:02;5.00;99.90
70368;DHT22;57789;53.868;10.728;2023-12-22T02:25:27;5.10;99.90
70368;DHT22;57789;53.868;10.728;2023-12-22T02:28:03;5.10;99.90
70368;DHT22;57789;53.868;10.728;2023-12-22T02:30:45;5.00;99.90
70368;DHT22;57789;53.868;10.728;2023-12-22T02:33:15;5.10;99.90
70368;DHT22;57789;53.868;10.728;2023-12-22T02:35:42;5.00;99.90
70368;DHT22;57789;53.868;10.728;2023-12-22T02:38:11;4.90;99.90
70368;DHT22;57789;53.868;10.728;2023-12-22T02:40:37;4.90;99.90
70368;DHT22;57789;53.868;10.728;2023-12-22T02:43:05;4.80;99.90
70368;DHT22;57789;53.868;10.728;2023-12-22T02:45:31;4.70;99.90
70368;DHT22;57789;53.868;10.728;2023-12-22T02:47:58;4.50;99.90
70368;DHT22;57789;53.868;10.728;2023-12-22T02:50:23;4.50;99.90
70368;DHT22;57789;53.868;10.728;2023-12-22T02:52:49;4.40;99.90
70368;DHT22;57789;53.868;10.728;2023-12-22T02:55:15;4.30;99.90
70368;DHT22;57789;53.868;10.728;2023-12-22T02:57:41;4.30;99.90
70368;DHT22;57789;53.868;10.728;2023-12-22T03:00:07;4.30;99.90
70368;DHT22;57789;53.868;10.728;2023-12-22T03:02:33;4.30;99.90
70368;DHT22;57789;53.868;10.728;2023-12-22T03:04:59;4.30;99.90
70368;DHT22;57789;53.868;10.728;2023-12-22T03:07:24;4.00;99.90
70368;DHT22;57789;53.868;10.728;2023-12-22T03:09:50;3.70;99.90
70368;DHT22;57789;53.868;10.728;2023-12-22T03:12:16;3.40;99.90
70368;DHT22;57789;53.868;10.728;2023-12-22T03:14:42;2.90;99.90
70368;DHT22;57789;53.868;10.728;2023-12-22T03:17:08;2.70;99.90
70368;DHT22;57789;53.868;10.728;2023-12-22T03:19:35;2.60;99.90
70368;DHT22;57789;53.868;10.728;2023-12-22T03:22:01;2.50;99.90
70368;DHT22;57789;53.868;10.728;2023-12-22T03:24:27;2.40;99.90
70368;DHT22;57789;53.868;10.728;2023-12-22T03:26:54;2.40;99.90
70368;DHT22;57789;53.868;10.728;2023-12-22T03:29:20;2.40;99.90
70368;DHT22;57789;53.868;10.728;2023-12-22T03:31:46;2.40;99.90
70368;DHT22;57789;53.868;10.728;2023-12-22T03:34:13;2.40;99.90
70368;DHT22;57789;53.868;10.728;2023-12-22T03:36:38;2.50;99.90
70368;DHT22;57789;53.868;10.728;2023-12-22T03:39:05;2.60;99.90
70368;DHT22;57789;53.868;10.728;2023-12-22T03:41:31;2.80;99.90
70368;DHT22;57789;53.868;10.728;2023-12-22T03:43:57;2.90;99.90
70368;DHT22;57789;53.868;10.728;2023-12-22T03:46:23;2.90;99.90
70368;DHT22;57789;53.868;10.728;2023-12-22T03:48:50;3.00;99.90
70368;DHT22;57789;53.868;10.728;2023-12-22T03:51:16;3.10;99.90
70368;DHT22;57789;53.868;10.728;2023-12-22T03:53:41;3.10;99.90
70368;DHT22;57789;53.868;10.728;2023-12-22T03:56:10;3.00;99.90
70368;DHT22;57789;53.868;10.728;2023-12-22T03:58:36;3.10;99.90
70368;DHT22;57789;53.868;10.728;2023-12-22T04:01:03;3.10;99.90
70368;DHT22;57789;53.868;10.728;2023-12-22T04:03:29;3.20;99.90
70368;DHT22;57789;53.868;10.728;2023-12-22T04:05:54;3.20;99.90
70368;DHT22;57789;53.868;10.728;2023-12-22T04:08:20;3.20;99.90
70368;DHT22;57789;53.868;10.728;2023-12-22T04:10:47;3.20;99.90
70368;DHT22;57789;53.868;10.728;2023-12-22T04:13:13;3.30;99.90
70368;DHT22;57789;53.868;10.728;2023-12-22T04:15:39;3.30;99.90
70368;DHT22;57789;53.868;10.728;2023-12-22T04:18:05;3.40;99.90
70368;DHT22;57789;53.868;10.728;2023-12-22T04:20:31;3.30;99.90
70368;DHT22;57789;53.868;10.728;2023-12-22T04:22:57;3.20;99.90
70368;DHT22;57789;53.868;10.728;2023-12-22T04:25:23;3.10;99.90
70368;DHT22;57789;53.868;10.728;2023-12-22T04:27:50;3.00;99.90
70368;DHT22;57789;53.868;10.728;2023-12-22T04:30:16;3.00;99.90
70368;DHT22;57789;53.868;10.728;2023-12-22T04:32:42;3.00;99.90
70368;DHT22;57789;53.868;10.728;2023-12-22T04:35:08;3.00;99.90
70368;DHT22;57789;53.868;10.728;2023-12-22T04:37:33;2.90;99.90
70368;DHT22;57789;53.868;10.728;2023-12-22T04:39:59;2.90;99.90
70368;DHT22;57789;53.868;10.728;2023-12-22T04:42:25;3.10;99.90
70368;DHT22;57789;53.868;10.728;2023-12-22T04:44:52;3.20;99.90
70368;DHT22;57789;53.868;10.728;2023-12-22T04:47:17;3.30;99.90
70368;DHT22;57789;53.868;10.728;2023-12-22T04:49:43;3.30;99.90
70368;DHT22;57789;53.868;10.728;2023-12-22T04:52:10;3.30;99.90
70368;DHT22;57789;53.868;10.728;2023-12-22T04:54:36;3.40;99.90
70368;DHT22;57789;53.868;10.728;2023-12-22T04:57:02;3.40;99.90
70368;DHT22;57789;53.868;10.728;2023-12-22T04:59:28;3.40;99.90
70368;DHT22;57789;53.868;10.728;2023-12-22T05:01:54;3.40;99.90
70368;DHT22;57789;53.868;10.728;2023-12-22T05:04:19;3.40;99.90
70368;DHT22;57789;53.868;10.728;2023-12-22T05:06:45;3.30;99.90
70368;DHT22;57789;53.868;10.728;2023-12-22T05:09:11;3.00;99.90
70368;DHT22;57789;53.868;10.728;2023-12-22T05:11:37;2.50;99.90
70368;DHT22;57789;53.868;10.728;2023-12-22T05:14:03;2.20;99.90
70368;DHT22;57789;53.868;10.728;2023-12-22T05:16:29;2.00;99.90
70368;DHT22;57789;53.868;10.728;2023-12-22T05:18:57;1.90;99.90
70368;DHT22;57789;53.868;10.728;2023-12-22T05:21:24;1.90;99.90
70368;DHT22;57789;53.868;10.728;2023-12-22T05:23:49;1.90;99.90
70368;DHT22;57789;53.868;10.728;2023-12-22T05:26:22;1.90;99.90
70368;DHT22;57789;53.868;10.728;2023-12-22T05:28:49;1.90;99.90
70368;DHT22;57789;53.868;10.728;2023-12-22T05:31:16;2.00;99.90
70368;DHT22;57789;53.868;10.728;2023-12-22T05:33:42;2.00;99.90
70368;DHT22;57789;53.868;10.728;2023-12-22T05:36:08;2.20;99.90
70368;DHT22;57789;53.868;10.728;2023-12-22T05:38:38;2.40;99.90
70368;DHT22;57789;53.868;10.728;2023-12-22T05:41:04;2.40;99.90
70368;DHT22;57789;53.868;10.728;2023-12-22T05:43:32;2.50;99.90
70368;DHT22;57789;53.868;10.728;2023-12-22T05:45:59;2.60;99.90
70368;DHT22;57789;53.868;10.728;2023-12-22T05:48:25;2.60;99.90
70368;DHT22;57789;53.868;10.728;2023-12-22T05:50:51;2.70;99.90
70368;DHT22;57789;53.868;10.728;2023-12-22T05:53:17;2.70;99.90
70368;DHT22;57789;53.868;10.728;2023-12-22T05:55:42;2.80;99.90
70368;DHT22;57789;53.868;10.728;2023-12-22T05:58:08;2.80;99.90
70368;DHT22;57789;53.868;10.728;2023-12-22T06:00:34;2.80;99.90
70368;DHT22;57789;53.868;10.728;2023-12-22T06:03:01;2.90;99.90
70368;DHT22;57789;53.868;10.728;2023-12-22T06:05:27;2.90;99.90
70368;DHT22;57789;53.868;10.728;2023-12-22T06:07:52;3.00;99.90
70368;DHT22;57789;53.868;10.728;2023-12-22T06:10:19;3.00;99.90
70368;DHT22;57789;53.868;10.728;2023-12-22T06:12:45;3.10;99.90
70368;DHT22;57789;53.868;10.728;2023-12-22T06:15:14;3.10;99.90
70368;DHT22;57789;53.868;10.728;2023-12-22T06:21:03;3.20;99.90
70368;DHT22;57789;53.868;10.728;2023-12-22T06:23:29;3.20;99.90
70368;DHT22;57789;53.868;10.728;2023-12-22T06:25:56;3.20;99.90
70368;DHT22;57789;53.868;10.728;2023-12-22T06:28:22;3.20;99.90
70368;DHT22;57789;53.868;10.728;2023-12-22T06:30:48;3.20;99.90
70368;DHT22;57789;53.868;10.728;2023-12-22T06:33:14;3.20;99.90
70368;DHT22;57789;53.868;10.728;2023-12-22T06:35:40;3.20;99.90
70368;DHT22;57789;53.868;10.728;2023-12-22T06:38:07;3.20;99.90
70368;DHT22;57789;53.868;10.728;2023-12-22T06:40:34;3.20;99.90
70368;DHT22;57789;53.868;10.728;2023-12-22T06:43:00;3.20;99.90
